Hrossey — VSTY6 — position and weather

sailwx.info

Track history (hours):
 
Tides and Currents Weather Stations Pressure Air Temp Water Temp Dewpoint Dewpoint Depression Visibility Wind Speed Wind Dir Waves Ship Positions

Hrossey

Operator: NorthLink Orkey & Shetland Ferries Ltd

Last reported at 2018-Sep-19 00:47 UTC. Time now 2018-Sep-19 03:55 UTC.
Position N 59°04' W 002°27'.

Length 125 m; draft 5.4 m.

Type: Ship. MMSI: 235448000.

Date/timePositionNaut miles runAvg speedWind from/ knotsBaromVisibWave heightAir tempDewpointWater temp
2018-Sep-19 00:47N 59°04' W 002°27'516.0
2018-Sep-19 00:30N 59°01' W 002°32'715.5
2018-Sep-19 00:03N 59°00' W 002°46'115.9
2018-Sep-19 00:00N 59°00' W 002°47'611.3
2018-Sep-18 23:30N 58°60' W 002°58'0 0.1
2018-Sep-18 23:03N 58°60' W 002°58'0 0.0
2018-Sep-18 23:00N 58°60' W 002°58'0 0.0
2018-Sep-18 22:30N 58°60' W 002°58'0 1.0
2018-Sep-18 22:03N 59°00' W 002°58'116.2
2018-Sep-18 22:00N 59°01' W 002°57'1121.4
2018-Sep-18 21:30N 58°57' W 002°38'8422.8
2018-Sep-18 17:49N 57°38' W 001°46'722.0
2018-Sep-18 17:30N 57°31' W 001°44'1021.9
2018-Sep-18 17:03N 57°22' W 001°48'222.9
2018-Sep-18 16:58N 57°20' W 001°50'1022.9
2018-Sep-18 16:31N 57°11' W 001°60'4 8.1
2018-Sep-18 16:04N 57°09' W 002°05'0 0.0
2018-Sep-18 16:01N 57°09' W 002°05'0 0.0
2018-Sep-18 15:28N 57°09' W 002°05'0 0.0
2018-Sep-18 15:03N 57°09' W 002°05'0 0.1
2018-Sep-18 15:00N 57°09' W 002°05'0 0.0
2018-Sep-18 14:27N 57°09' W 002°05'0 0.0
2018-Sep-18 13:58N 57°09' W 002°05'0 0.0
2018-Sep-18 13:30N 57°09' W 002°05'0 0.0
2018-Sep-18 13:01N 57°09' W 002°05'0 0.0
2018-Sep-18 12:58N 57°09' W 002°05'0 0.0
2018-Sep-18 12:27N 57°09' W 002°05'0 0.0
2018-Sep-18 12:03N 57°09' W 002°05'0 0.0
2018-Sep-18 11:58N 57°09' W 002°05'0 0.0
2018-Sep-18 11:27N 57°09' W 002°05'0 0.0
2018-Sep-18 11:03N 57°09' W 002°05'0 0.1
2018-Sep-18 11:00N 57°09' W 002°05'0 0.0
2018-Sep-18 10:27N 57°09' W 002°05'0 0.0
2018-Sep-18 10:00N 57°09' W 002°05'0 0.0
2018-Sep-18 09:28N 57°09' W 002°05'0 0.0
2018-Sep-18 09:01N 57°09' W 002°05'0 0.0
2018-Sep-18 08:28N 57°09' W 002°05'0 0.0
2018-Sep-18 08:00N 57°09' W 002°05'0 0.0
2018-Sep-18 07:27N 57°09' W 002°05'0 0.0
2018-Sep-18 07:00N 57°09' W 002°05'0 0.0
2018-Sep-18 06:30N 57°09' W 002°05'0 0.0
2018-Sep-18 06:01N 57°09' W 002°05'0 0.0
2018-Sep-18 05:58N 57°09' W 002°05'1 1.2
2018-Sep-18 05:31N 57°09' W 002°04'510.7
2018-Sep-18 05:03N 57°12' W 001°58'114.1
2018-Sep-18 05:00N 57°12' W 001°57'1014.6
2018-Sep-18 04:20N 57°21' W 001°47'616.3
2018-Sep-18 03:58N 57°26' W 001°42'715.9
2018-Sep-18 03:30N 57°33' W 001°39'8721.4
2018-Sep-17 23:25N 58°55' W 002°36'719.5
2018-Sep-17 23:03N 59°00' W 002°46'122.2
2018-Sep-17 23:00N 59°00' W 002°48'5 9.9
2018-Sep-17 22:27N 58°60' W 002°58'0 0.0
2018-Sep-17 22:03N 58°60' W 002°58'0 0.0
2018-Sep-17 21:57N 58°60' W 002°58'2 4.0
2018-Sep-17 21:30N 59°01' W 002°56'817.6
2018-Sep-17 21:03N 59°01' W 002°41'117.8
2018-Sep-17 21:00N 59°01' W 002°39'8 0.4
2018-Sep-17 00:04N 59°05' W 002°28'014.5
2018-Sep-17 00:02N 59°05' W 002°28'114.1
2018-Sep-17 00:00N 59°04' W 002°28'712.3
2018-Sep-16 23:25N 59°01' W 002°40'514.0
2018-Sep-16 23:04N 59°01' W 002°50'113.5
2018-Sep-16 23:00N 59°01' W 002°51'4 7.4
2018-Sep-16 22:30N 58°60' W 002°58'0 0.0
2018-Sep-16 21:58N 58°60' W 002°58'510.6
2018-Sep-16 21:30N 59°00' W 002°49'920.9
2018-Sep-16 21:03N 58°54' W 002°35'123.7
2018-Sep-16 21:00N 58°53' W 002°34'7923.0
2018-Sep-16 17:34N 57°38' W 001°44'121.5
2018-Sep-16 17:30N 57°37' W 001°44'921.4
2018-Sep-16 17:04N 57°27' W 001°44'121.5
2018-Sep-16 17:01N 57°27' W 001°44'1122.0
2018-Sep-16 16:30N 57°17' W 001°54'921.1
2018-Sep-16 16:03N 57°09' W 002°03'0 8.2
2018-Sep-16 16:00N 57°09' W 002°04'1 1.5
2018-Sep-16 15:30N 57°09' W 002°05'0 0.0
2018-Sep-16 15:02N 57°09' W 002°05'0 0.0
2018-Sep-16 15:00N 57°09' W 002°05'0 0.0
2018-Sep-16 14:00N 57°09' W 002°05'0 0.0
2018-Sep-16 13:30N 57°09' W 002°05'0 0.0
2018-Sep-16 13:02N 57°09' W 002°05'0 0.0
2018-Sep-16 13:00N 57°09' W 002°05'0 0.0
2018-Sep-16 12:30N 57°09' W 002°05'0 0.0
2018-Sep-16 12:02N 57°09' W 002°05'0 0.0
2018-Sep-16 12:00N 57°09' W 002°05'0 0.0
2018-Sep-16 11:30N 57°09' W 002°05'0 0.0
2018-Sep-16 11:02N 57°09' W 002°05'0 0.0
2018-Sep-16 11:00N 57°09' W 002°05'0 0.0
2018-Sep-16 10:30N 57°09' W 002°05'0 0.0
2018-Sep-16 10:02N 57°09' W 002°05'0 0.0
2018-Sep-16 10:00N 57°09' W 002°05'0 0.0
2018-Sep-16 09:30N 57°09' W 002°05'0 0.0
2018-Sep-16 09:02N 57°09' W 002°05'0 0.2
2018-Sep-16 09:00N 57°09' W 002°05'0 0.0
2018-Sep-16 08:30N 57°09' W 002°05'0 0.0
2018-Sep-16 08:03N 57°09' W 002°05'0 0.0
2018-Sep-16 08:00N 57°09' W 002°05'0 0.0
2018-Sep-16 07:30N 57°09' W 002°05'0 0.0
2018-Sep-16 07:03N 57°09' W 002°05'0 0.0
2018-Sep-16 07:00N 57°09' W 002°05'0 0.0
2018-Sep-16 06:30N 57°09' W 002°05'0 0.0
2018-Sep-16 06:03N 57°09' W 002°05'0 0.0
2018-Sep-16 06:00N 57°09' W 002°05'1 1.2
2018-Sep-16 05:30N 57°08' W 002°04'612.3
2018-Sep-16 05:03N 57°12' W 001°57'115.0
2018-Sep-16 05:00N 57°13' W 001°57'1315.6
2018-Sep-16 04:11N 57°24' W 001°44'215.7
2018-Sep-16 04:03N 57°26' W 001°42'115.7
2018-Sep-16 03:59N 57°27' W 001°41'612.4
2018-Sep-16 03:30N 57°32' W 001°37'4 0.1
2018-Sep-14 20:20N 57°37' W 001°38'414.3
2018-Sep-14 20:03N 57°33' W 001°37'114.3
2018-Sep-14 20:00N 57°32' W 001°37'713.5
2018-Sep-14 19:30N 57°25' W 001°41'714.0
2018-Sep-14 19:02N 57°20' W 001°49'013.6
2018-Sep-14 19:00N 57°20' W 001°49'713.7
2018-Sep-14 18:30N 57°14' W 001°56'613.8
2018-Sep-14 18:03N 57°09' W 002°02'112.7
2018-Sep-14 18:00N 57°09' W 002°03'1 2.2
2018-Sep-14 17:29N 57°09' W 002°05'0 0.0
2018-Sep-14 17:02N 57°09' W 002°05'0 0.0
2018-Sep-14 16:59N 57°09' W 002°05'0 0.0
2018-Sep-14 16:29N 57°09' W 002°05'0 0.0
2018-Sep-14 16:02N 57°09' W 002°05'0 0.0
2018-Sep-14 15:59N 57°09' W 002°05'0 0.0
2018-Sep-14 15:29N 57°09' W 002°05'0 0.0
2018-Sep-14 15:02N 57°09' W 002°05'0 0.0
2018-Sep-14 14:59N 57°09' W 002°05'0 0.0
2018-Sep-14 14:29N 57°09' W 002°05'0 0.0
2018-Sep-14 13:59N 57°09' W 002°05'0 0.0
2018-Sep-14 13:29N 57°09' W 002°05'0 0.0
2018-Sep-14 13:02N 57°09' W 002°05'0 0.0
2018-Sep-14 12:59N 57°09' W 002°05'0 0.0
2018-Sep-14 12:29N 57°09' W 002°05'0 0.0
2018-Sep-14 12:02N 57°09' W 002°05'0 0.1
2018-Sep-14 11:59N 57°09' W 002°05'0 0.0
2018-Sep-14 11:29N 57°09' W 002°05'0 0.0
2018-Sep-14 11:02N 57°09' W 002°05'0 0.0
2018-Sep-14 10:59N 57°09' W 002°05'0 0.0
2018-Sep-14 10:29N 57°09' W 002°05'0 0.0
2018-Sep-14 10:02N 57°09' W 002°05'0 0.0
2018-Sep-14 09:59N 57°09' W 002°05'0 0.0
2018-Sep-14 09:29N 57°09' W 002°05'0 0.0
2018-Sep-14 09:02N 57°09' W 002°05'0 0.0
2018-Sep-14 08:59N 57°09' W 002°05'0 0.0
2018-Sep-14 08:29N 57°09' W 002°05'0 0.0
2018-Sep-14 08:02N 57°09' W 002°05'0 0.0
2018-Sep-14 07:59N 57°09' W 002°05'0 0.0
2018-Sep-14 07:29N 57°09' W 002°05'0 0.0
2018-Sep-14 07:02N 57°09' W 002°05'0 0.0
2018-Sep-14 06:59N 57°09' W 002°05'0 0.0
2018-Sep-14 06:29N 57°09' W 002°05'0 0.0
2018-Sep-14 06:02N 57°09' W 002°05'0 0.1
2018-Sep-14 05:59N 57°09' W 002°05'1 2.0
2018-Sep-14 05:30N 57°09' W 002°04'511.5
2018-Sep-14 05:03N 57°12' W 001°57'114.8
2018-Sep-14 05:00N 57°13' W 001°56'714.2
2018-Sep-14 04:30N 57°19' W 001°48'1112.7
2018-Sep-14 03:38N 57°28' W 001°38'213.1
2018-Sep-14 03:30N 57°30' W 001°36'7 0.2
2018-Sep-12 20:09N 57°36' W 001°39'115.7
2018-Sep-12 20:03N 57°35' W 001°39'115.7
2018-Sep-12 20:01N 57°34' W 001°39'815.4
2018-Sep-12 19:31N 57°27' W 001°43'715.8
2018-Sep-12 19:02N 57°20' W 001°50'115.6
2018-Sep-12 18:59N 57°20' W 001°51'715.1
2018-Sep-12 18:30N 57°13' W 001°58'613.4
2018-Sep-12 18:03N 57°08' W 002°04'0 4.0
2018-Sep-12 18:01N 57°09' W 002°05'0 0.9
2018-Sep-12 17:28N 57°09' W 002°05'0 0.0
2018-Sep-12 17:02N 57°09' W 002°05'0 0.0
2018-Sep-12 16:58N 57°09' W 002°05'0 0.0
2018-Sep-12 16:28N 57°09' W 002°05'0 0.0
2018-Sep-12 16:02N 57°09' W 002°05'0 0.0
2018-Sep-12 15:58N 57°09' W 002°05'0 0.0
2018-Sep-12 15:28N 57°09' W 002°05'0 0.0
2018-Sep-12 15:02N 57°09' W 002°05'0 0.0
2018-Sep-12 14:58N 57°09' W 002°05'0 0.0
2018-Sep-12 14:02N 57°09' W 002°05'0 0.0
2018-Sep-12 13:58N 57°09' W 002°05'0 0.0
2018-Sep-12 13:28N 57°09' W 002°05'0 0.0
2018-Sep-12 13:02N 57°09' W 002°05'0 0.0
2018-Sep-12 12:58N 57°09' W 002°05'0 0.0
2018-Sep-12 12:28N 57°09' W 002°05'0 0.0
2018-Sep-12 12:02N 57°09' W 002°05'0 0.0
2018-Sep-12 11:58N 57°09' W 002°05'0 0.0
2018-Sep-12 11:28N 57°09' W 002°05'0 0.0
2018-Sep-12 11:02N 57°09' W 002°05'0 0.0
2018-Sep-12 10:58N 57°09' W 002°05'0 0.0
2018-Sep-12 10:28N 57°09' W 002°05'0 0.0
2018-Sep-12 10:02N 57°09' W 002°05'0 0.0
2018-Sep-12 09:58N 57°09' W 002°05'0 0.0
2018-Sep-12 09:28N 57°09' W 002°05'0 0.0
2018-Sep-12 09:02N 57°09' W 002°05'0 0.0
2018-Sep-12 08:58N 57°09' W 002°05'0 0.0
2018-Sep-12 08:28N 57°09' W 002°05'0 0.0
2018-Sep-12 08:02N 57°09' W 002°05'0 0.0
2018-Sep-12 07:58N 57°09' W 002°05'0 0.0
2018-Sep-12 07:28N 57°09' W 002°05'0 0.0
2018-Sep-12 07:02N 57°09' W 002°05'0 0.1
2018-Sep-12 06:58N 57°09' W 002°05'0 0.0
2018-Sep-12 06:28N 57°09' W 002°05'0 0.0
2018-Sep-12 06:01N 57°09' W 002°05'0 0.0
2018-Sep-12 05:58N 57°09' W 002°05'1 1.5
2018-Sep-12 05:30N 57°08' W 002°04'612.8
2018-Sep-12 05:03N 57°12' W 001°57'115.8
2018-Sep-12 05:00N 57°13' W 001°56'1816.6
2018-Sep-12 03:56N 57°28' W 001°38'11 0.3
2018-Sep-10 20:09N 57°39' W 001°41'214.7
2018-Sep-10 20:02N 57°37' W 001°41'014.7
2018-Sep-10 20:00N 57°36' W 001°41'815.1
2018-Sep-10 19:31N 57°29' W 001°42'1215.4
2018-Sep-10 18:45N 57°18' W 001°52'415.5
2018-Sep-10 18:30N 57°15' W 001°55'715.6
2018-Sep-10 18:03N 57°09' W 002°02'115.1
2018-Sep-10 18:00N 57°09' W 002°03'1 2.3
2018-Sep-10 17:30N 57°09' W 002°05'0 0.0
2018-Sep-10 17:03N 57°09' W 002°05'0 0.0
2018-Sep-10 17:00N 57°09' W 002°05'0 0.0
2018-Sep-10 16:30N 57°09' W 002°05'0 0.0
2018-Sep-10 16:03N 57°09' W 002°05'0 0.0
2018-Sep-10 16:00N 57°09' W 002°05'0 0.0
2018-Sep-10 15:28N 57°09' W 002°05'0 0.0
2018-Sep-10 15:03N 57°09' W 002°05'0 0.0
2018-Sep-10 15:00N 57°09' W 002°05'0 0.0
2018-Sep-10 14:03N 57°09' W 002°05'0 0.0
2018-Sep-10 13:57N 57°09' W 002°05'0 0.0
2018-Sep-10 13:27N 57°09' W 002°05'0 0.0
2018-Sep-10 13:03N 57°09' W 002°05'0 0.0
2018-Sep-10 13:00N 57°09' W 002°05'0 0.0
2018-Sep-10 12:31N 57°09' W 002°05'0 0.0
2018-Sep-10 12:00N 57°09' W 002°05'0 0.0
2018-Sep-10 11:30N 57°09' W 002°05'0 0.0
2018-Sep-10 11:03N 57°09' W 002°05'0 0.0
2018-Sep-10 11:00N 57°09' W 002°05'0 0.0
2018-Sep-10 10:27N 57°09' W 002°05'0 0.0
2018-Sep-10 10:03N 57°09' W 002°05'0 0.0
2018-Sep-10 10:00N 57°09' W 002°05'0 0.0
2018-Sep-10 09:30N 57°09' W 002°05'0 0.0
2018-Sep-10 09:03N 57°09' W 002°05'0 0.1
2018-Sep-10 09:00N 57°09' W 002°05'0 0.0
2018-Sep-10 08:30N 57°09' W 002°05'0 0.0
2018-Sep-10 08:03N 57°09' W 002°05'0 0.1
2018-Sep-10 07:57N 57°09' W 002°05'0 0.0
2018-Sep-10 07:30N 57°09' W 002°05'0 0.0
2018-Sep-10 07:03N 57°09' W 002°05'0 0.0
2018-Sep-10 07:01N 57°09' W 002°05'0 0.0
2018-Sep-10 06:30N 57°09' W 002°05'0 0.0
2018-Sep-10 06:03N 57°09' W 002°05'0 0.0
2018-Sep-10 06:00N 57°09' W 002°05'1 1.1
2018-Sep-10 05:31N 57°09' W 002°04'511.2
2018-Sep-10 05:03N 57°12' W 001°58'114.8
2018-Sep-10 05:00N 57°12' W 001°57'1314.3
2018-Sep-10 04:05N 57°23' W 001°43'313.6
2018-Sep-10 03:53N 57°26' W 001°41'512.0
2018-Sep-10 03:29N 57°30' W 001°38'  
Track history (hours):
 
Tides and Currents Weather Stations Pressure Air Temp Water Temp Dewpoint Dewpoint Depression Visibility Wind Speed Wind Dir Waves Ship Positions

Hrossey

Operator: NorthLink Orkey & Shetland Ferries Ltd

Last reported at 2018-Sep-19 00:47 UTC. Time now 2018-Sep-19 03:55 UTC.
Position N 59°04' W 002°27'.

Length 125 m; draft 5.4 m.

Type: Ship. MMSI: 235448000.

Date/timePositionNaut miles runAvg speedWind from/ knotsBaromVisibWave heightAir tempDewpointWater temp
2018-Sep-19 00:47N 59°04' W 002°27'516.0
2018-Sep-19 00:30N 59°01' W 002°32'715.5
2018-Sep-19 00:03N 59°00' W 002°46'115.9
2018-Sep-19 00:00N 59°00' W 002°47'611.3
2018-Sep-18 23:30N 58°60' W 002°58'0 0.1
2018-Sep-18 23:03N 58°60' W 002°58'0 0.0
2018-Sep-18 23:00N 58°60' W 002°58'0 0.0
2018-Sep-18 22:30N 58°60' W 002°58'0 1.0
2018-Sep-18 22:03N 59°00' W 002°58'116.2
2018-Sep-18 22:00N 59°01' W 002°57'1121.4
2018-Sep-18 21:30N 58°57' W 002°38'8422.8
2018-Sep-18 17:49N 57°38' W 001°46'722.0
2018-Sep-18 17:30N 57°31' W 001°44'1021.9
2018-Sep-18 17:03N 57°22' W 001°48'222.9
2018-Sep-18 16:58N 57°20' W 001°50'1022.9
2018-Sep-18 16:31N 57°11' W 001°60'4 8.1
2018-Sep-18 16:04N 57°09' W 002°05'0 0.0
2018-Sep-18 16:01N 57°09' W 002°05'0 0.0
2018-Sep-18 15:28N 57°09' W 002°05'0 0.0
2018-Sep-18 15:03N 57°09' W 002°05'0 0.1
2018-Sep-18 15:00N 57°09' W 002°05'0 0.0
2018-Sep-18 14:27N 57°09' W 002°05'0 0.0
2018-Sep-18 13:58N 57°09' W 002°05'0 0.0
2018-Sep-18 13:30N 57°09' W 002°05'0 0.0
2018-Sep-18 13:01N 57°09' W 002°05'0 0.0
2018-Sep-18 12:58N 57°09' W 002°05'0 0.0
2018-Sep-18 12:27N 57°09' W 002°05'0 0.0
2018-Sep-18 12:03N 57°09' W 002°05'0 0.0
2018-Sep-18 11:58N 57°09' W 002°05'0 0.0
2018-Sep-18 11:27N 57°09' W 002°05'0 0.0
2018-Sep-18 11:03N 57°09' W 002°05'0 0.1
2018-Sep-18 11:00N 57°09' W 002°05'0 0.0
2018-Sep-18 10:27N 57°09' W 002°05'0 0.0
2018-Sep-18 10:00N 57°09' W 002°05'0 0.0
2018-Sep-18 09:28N 57°09' W 002°05'0 0.0
2018-Sep-18 09:01N 57°09' W 002°05'0 0.0
2018-Sep-18 08:28N 57°09' W 002°05'0 0.0
2018-Sep-18 08:00N 57°09' W 002°05'0 0.0
2018-Sep-18 07:27N 57°09' W 002°05'0 0.0
2018-Sep-18 07:00N 57°09' W 002°05'0 0.0
2018-Sep-18 06:30N 57°09' W 002°05'0 0.0
2018-Sep-18 06:01N 57°09' W 002°05'0 0.0
2018-Sep-18 05:58N 57°09' W 002°05'1 1.2
2018-Sep-18 05:31N 57°09' W 002°04'510.7
2018-Sep-18 05:03N 57°12' W 001°58'114.1
2018-Sep-18 05:00N 57°12' W 001°57'1014.6
2018-Sep-18 04:20N 57°21' W 001°47'616.3
2018-Sep-18 03:58N 57°26' W 001°42'715.9
2018-Sep-18 03:30N 57°33' W 001°39'8721.4
2018-Sep-17 23:25N 58°55' W 002°36'719.5
2018-Sep-17 23:03N 59°00' W 002°46'122.2
2018-Sep-17 23:00N 59°00' W 002°48'5 9.9
2018-Sep-17 22:27N 58°60' W 002°58'0 0.0
2018-Sep-17 22:03N 58°60' W 002°58'0 0.0
2018-Sep-17 21:57N 58°60' W 002°58'2 4.0
2018-Sep-17 21:30N 59°01' W 002°56'817.6
2018-Sep-17 21:03N 59°01' W 002°41'117.8
2018-Sep-17 21:00N 59°01' W 002°39'8 0.4
2018-Sep-17 00:04N 59°05' W 002°28'014.5
2018-Sep-17 00:02N 59°05' W 002°28'114.1
2018-Sep-17 00:00N 59°04' W 002°28'712.3
2018-Sep-16 23:25N 59°01' W 002°40'514.0
2018-Sep-16 23:04N 59°01' W 002°50'113.5
2018-Sep-16 23:00N 59°01' W 002°51'4 7.4
2018-Sep-16 22:30N 58°60' W 002°58'0 0.0
2018-Sep-16 21:58N 58°60' W 002°58'510.6
2018-Sep-16 21:30N 59°00' W 002°49'920.9
2018-Sep-16 21:03N 58°54' W 002°35'123.7
2018-Sep-16 21:00N 58°53' W 002°34'7923.0
2018-Sep-16 17:34N 57°38' W 001°44'121.5
2018-Sep-16 17:30N 57°37' W 001°44'921.4
2018-Sep-16 17:04N 57°27' W 001°44'121.5
2018-Sep-16 17:01N 57°27' W 001°44'1122.0
2018-Sep-16 16:30N 57°17' W 001°54'921.1
2018-Sep-16 16:03N 57°09' W 002°03'0 8.2
2018-Sep-16 16:00N 57°09' W 002°04'1 1.5
2018-Sep-16 15:30N 57°09' W 002°05'0 0.0
2018-Sep-16 15:02N 57°09' W 002°05'0 0.0
2018-Sep-16 15:00N 57°09' W 002°05'0 0.0
2018-Sep-16 14:00N 57°09' W 002°05'0 0.0
2018-Sep-16 13:30N 57°09' W 002°05'0 0.0
2018-Sep-16 13:02N 57°09' W 002°05'0 0.0
2018-Sep-16 13:00N 57°09' W 002°05'0 0.0
2018-Sep-16 12:30N 57°09' W 002°05'0 0.0
2018-Sep-16 12:02N 57°09' W 002°05'0 0.0
2018-Sep-16 12:00N 57°09' W 002°05'0 0.0
2018-Sep-16 11:30N 57°09' W 002°05'0 0.0
2018-Sep-16 11:02N 57°09' W 002°05'0 0.0
2018-Sep-16 11:00N 57°09' W 002°05'0 0.0
2018-Sep-16 10:30N 57°09' W 002°05'0 0.0
2018-Sep-16 10:02N 57°09' W 002°05'0 0.0
2018-Sep-16 10:00N 57°09' W 002°05'0 0.0
2018-Sep-16 09:30N 57°09' W 002°05'0 0.0
2018-Sep-16 09:02N 57°09' W 002°05'0 0.2
2018-Sep-16 09:00N 57°09' W 002°05'0 0.0
2018-Sep-16 08:30N 57°09' W 002°05'0 0.0
2018-Sep-16 08:03N 57°09' W 002°05'0 0.0
2018-Sep-16 08:00N 57°09' W 002°05'0 0.0
2018-Sep-16 07:30N 57°09' W 002°05'0 0.0
2018-Sep-16 07:03N 57°09' W 002°05'0 0.0
2018-Sep-16 07:00N 57°09' W 002°05'0 0.0
2018-Sep-16 06:30N 57°09' W 002°05'0 0.0
2018-Sep-16 06:03N 57°09' W 002°05'0 0.0
2018-Sep-16 06:00N 57°09' W 002°05'1 1.2
2018-Sep-16 05:30N 57°08' W 002°04'612.3
2018-Sep-16 05:03N 57°12' W 001°57'115.0
2018-Sep-16 05:00N 57°13' W 001°57'1315.6
2018-Sep-16 04:11N 57°24' W 001°44'215.7
2018-Sep-16 04:03N 57°26' W 001°42'115.7
2018-Sep-16 03:59N 57°27' W 001°41'612.4
2018-Sep-16 03:30N 57°32' W 001°37'4 0.1
2018-Sep-14 20:20N 57°37' W 001°38'414.3
2018-Sep-14 20:03N 57°33' W 001°37'114.3
2018-Sep-14 20:00N 57°32' W 001°37'713.5
2018-Sep-14 19:30N 57°25' W 001°41'714.0
2018-Sep-14 19:02N 57°20' W 001°49'013.6
2018-Sep-14 19:00N 57°20' W 001°49'713.7
2018-Sep-14 18:30N 57°14' W 001°56'613.8
2018-Sep-14 18:03N 57°09' W 002°02'112.7
2018-Sep-14 18:00N 57°09' W 002°03'1 2.2
2018-Sep-14 17:29N 57°09' W 002°05'0 0.0
2018-Sep-14 17:02N 57°09' W 002°05'0 0.0
2018-Sep-14 16:59N 57°09' W 002°05'0 0.0
2018-Sep-14 16:29N 57°09' W 002°05'0 0.0
2018-Sep-14 16:02N 57°09' W 002°05'0 0.0
2018-Sep-14 15:59N 57°09' W 002°05'0 0.0
2018-Sep-14 15:29N 57°09' W 002°05'0 0.0
2018-Sep-14 15:02N 57°09' W 002°05'0 0.0
2018-Sep-14 14:59N 57°09' W 002°05'0 0.0
2018-Sep-14 14:29N 57°09' W 002°05'0 0.0
2018-Sep-14 13:59N 57°09' W 002°05'0 0.0
2018-Sep-14 13:29N 57°09' W 002°05'0 0.0
2018-Sep-14 13:02N 57°09' W 002°05'0 0.0
2018-Sep-14 12:59N 57°09' W 002°05'0 0.0
2018-Sep-14 12:29N 57°09' W 002°05'0 0.0
2018-Sep-14 12:02N 57°09' W 002°05'0 0.1
2018-Sep-14 11:59N 57°09' W 002°05'0 0.0
2018-Sep-14 11:29N 57°09' W 002°05'0 0.0
2018-Sep-14 11:02N 57°09' W 002°05'0 0.0
2018-Sep-14 10:59N 57°09' W 002°05'0 0.0
2018-Sep-14 10:29N 57°09' W 002°05'0 0.0
2018-Sep-14 10:02N 57°09' W 002°05'0 0.0
2018-Sep-14 09:59N 57°09' W 002°05'0 0.0
2018-Sep-14 09:29N 57°09' W 002°05'0 0.0
2018-Sep-14 09:02N 57°09' W 002°05'0 0.0
2018-Sep-14 08:59N 57°09' W 002°05'0 0.0
2018-Sep-14 08:29N 57°09' W 002°05'0 0.0
2018-Sep-14 08:02N 57°09' W 002°05'0 0.0
2018-Sep-14 07:59N 57°09' W 002°05'0 0.0
2018-Sep-14 07:29N 57°09' W 002°05'0 0.0
2018-Sep-14 07:02N 57°09' W 002°05'0 0.0
2018-Sep-14 06:59N 57°09' W 002°05'0 0.0
2018-Sep-14 06:29N 57°09' W 002°05'0 0.0
2018-Sep-14 06:02N 57°09' W 002°05'0 0.1
2018-Sep-14 05:59N 57°09' W 002°05'1 2.0
2018-Sep-14 05:30N 57°09' W 002°04'511.5
2018-Sep-14 05:03N 57°12' W 001°57'114.8
2018-Sep-14 05:00N 57°13' W 001°56'714.2
2018-Sep-14 04:30N 57°19' W 001°48'1112.7
2018-Sep-14 03:38N 57°28' W 001°38'213.1
2018-Sep-14 03:30N 57°30' W 001°36'7 0.2
2018-Sep-12 20:09N 57°36' W 001°39'115.7
2018-Sep-12 20:03N 57°35' W 001°39'115.7
2018-Sep-12 20:01N 57°34' W 001°39'815.4
2018-Sep-12 19:31N 57°27' W 001°43'715.8
2018-Sep-12 19:02N 57°20' W 001°50'115.6
2018-Sep-12 18:59N 57°20' W 001°51'715.1
2018-Sep-12 18:30N 57°13' W 001°58'613.4
2018-Sep-12 18:03N 57°08' W 002°04'0 4.0
2018-Sep-12 18:01N 57°09' W 002°05'0 0.9
2018-Sep-12 17:28N 57°09' W 002°05'0 0.0
2018-Sep-12 17:02N 57°09' W 002°05'0 0.0
2018-Sep-12 16:58N 57°09' W 002°05'0 0.0
2018-Sep-12 16:28N 57°09' W 002°05'0 0.0
2018-Sep-12 16:02N 57°09' W 002°05'0 0.0
2018-Sep-12 15:58N 57°09' W 002°05'0 0.0
2018-Sep-12 15:28N 57°09' W 002°05'0 0.0
2018-Sep-12 15:02N 57°09' W 002°05'0 0.0
2018-Sep-12 14:58N 57°09' W 002°05'0 0.0
2018-Sep-12 14:02N 57°09' W 002°05'0 0.0
2018-Sep-12 13:58N 57°09' W 002°05'0 0.0
2018-Sep-12 13:28N 57°09' W 002°05'0 0.0
2018-Sep-12 13:02N 57°09' W 002°05'0 0.0
2018-Sep-12 12:58N 57°09' W 002°05'0 0.0
2018-Sep-12 12:28N 57°09' W 002°05'0 0.0
2018-Sep-12 12:02N 57°09' W 002°05'0 0.0
2018-Sep-12 11:58N 57°09' W 002°05'0 0.0
2018-Sep-12 11:28N 57°09' W 002°05'0 0.0
2018-Sep-12 11:02N 57°09' W 002°05'0 0.0
2018-Sep-12 10:58N 57°09' W 002°05'0 0.0
2018-Sep-12 10:28N 57°09' W 002°05'0 0.0
2018-Sep-12 10:02N 57°09' W 002°05'0 0.0
2018-Sep-12 09:58N 57°09' W 002°05'0 0.0
2018-Sep-12 09:28N 57°09' W 002°05'0 0.0
2018-Sep-12 09:02N 57°09' W 002°05'0 0.0
2018-Sep-12 08:58N 57°09' W 002°05'0 0.0
2018-Sep-12 08:28N 57°09' W 002°05'0 0.0
2018-Sep-12 08:02N 57°09' W 002°05'0 0.0
2018-Sep-12 07:58N 57°09' W 002°05'0 0.0
2018-Sep-12 07:28N 57°09' W 002°05'0 0.0
2018-Sep-12 07:02N 57°09' W 002°05'0 0.1
2018-Sep-12 06:58N 57°09' W 002°05'0 0.0
2018-Sep-12 06:28N 57°09' W 002°05'0 0.0
2018-Sep-12 06:01N 57°09' W 002°05'0 0.0
2018-Sep-12 05:58N 57°09' W 002°05'1 1.5
2018-Sep-12 05:30N 57°08' W 002°04'612.8
2018-Sep-12 05:03N 57°12' W 001°57'115.8
2018-Sep-12 05:00N 57°13' W 001°56'1816.6
2018-Sep-12 03:56N 57°28' W 001°38'11 0.3
2018-Sep-10 20:09N 57°39' W 001°41'214.7
2018-Sep-10 20:02N 57°37' W 001°41'014.7
2018-Sep-10 20:00N 57°36' W 001°41'815.1
2018-Sep-10 19:31N 57°29' W 001°42'1215.4
2018-Sep-10 18:45N 57°18' W 001°52'415.5
2018-Sep-10 18:30N 57°15' W 001°55'715.6
2018-Sep-10 18:03N 57°09' W 002°02'115.1
2018-Sep-10 18:00N 57°09' W 002°03'1 2.3
2018-Sep-10 17:30N 57°09' W 002°05'0 0.0
2018-Sep-10 17:03N 57°09' W 002°05'0 0.0
2018-Sep-10 17:00N 57°09' W 002°05'0 0.0
2018-Sep-10 16:30N 57°09' W 002°05'0 0.0
2018-Sep-10 16:03N 57°09' W 002°05'0 0.0
2018-Sep-10 16:00N 57°09' W 002°05'0 0.0
2018-Sep-10 15:28N 57°09' W 002°05'0 0.0
2018-Sep-10 15:03N 57°09' W 002°05'0 0.0
2018-Sep-10 15:00N 57°09' W 002°05'0 0.0
2018-Sep-10 14:03N 57°09' W 002°05'0 0.0
2018-Sep-10 13:57N 57°09' W 002°05'0 0.0
2018-Sep-10 13:27N 57°09' W 002°05'0 0.0
2018-Sep-10 13:03N 57°09' W 002°05'0 0.0
2018-Sep-10 13:00N 57°09' W 002°05'0 0.0
2018-Sep-10 12:31N 57°09' W 002°05'0 0.0
2018-Sep-10 12:00N 57°09' W 002°05'0 0.0
2018-Sep-10 11:30N 57°09' W 002°05'0 0.0
2018-Sep-10 11:03N 57°09' W 002°05'0 0.0
2018-Sep-10 11:00N 57°09' W 002°05'0 0.0
2018-Sep-10 10:27N 57°09' W 002°05'0 0.0
2018-Sep-10 10:03N 57°09' W 002°05'0 0.0
2018-Sep-10 10:00N 57°09' W 002°05'0 0.0
2018-Sep-10 09:30N 57°09' W 002°05'0 0.0
2018-Sep-10 09:03N 57°09' W 002°05'0 0.1
2018-Sep-10 09:00N 57°09' W 002°05'0 0.0
2018-Sep-10 08:30N 57°09' W 002°05'0 0.0
2018-Sep-10 08:03N 57°09' W 002°05'0 0.1
2018-Sep-10 07:57N 57°09' W 002°05'0 0.0
2018-Sep-10 07:30N 57°09' W 002°05'0 0.0
2018-Sep-10 07:03N 57°09' W 002°05'0 0.0
2018-Sep-10 07:01N 57°09' W 002°05'0 0.0
2018-Sep-10 06:30N 57°09' W 002°05'0 0.0
2018-Sep-10 06:03N 57°09' W 002°05'0 0.0
2018-Sep-10 06:00N 57°09' W 002°05'1 1.1
2018-Sep-10 05:31N 57°09' W 002°04'511.2
2018-Sep-10 05:03N 57°12' W 001°58'114.8
2018-Sep-10 05:00N 57°12' W 001°57'1314.3
2018-Sep-10 04:05N 57°23' W 001°43'313.6
2018-Sep-10 03:53N 57°26' W 001°41'512.0
2018-Sep-10 03:29N 57°30' W 001°38'  

Dump ship's entire track history